createdAt,value
2018-06-25T00:01:02.244Z,9.53
2018-06-25T00:03:30.638Z,16.53
2018-06-25T00:05:59.291Z,6.77
2018-06-25T00:08:27.684Z,6.27
2018-06-25T00:10:56.094Z,7.30
2018-06-25T00:13:24.461Z,16.10
2018-06-25T00:15:52.846Z,8.50
2018-06-25T00:18:21.241Z,10.10
2018-06-25T00:20:49.633Z,8.10
2018-06-25T00:23:17.998Z,7.17
2018-06-25T00:25:46.394Z,6.80
2018-06-25T00:28:14.767Z,9.10
2018-06-25T00:30:43.235Z,11.60
2018-06-25T00:33:11.617Z,6.63
2018-06-25T00:35:40.018Z,10.50
2018-06-25T00:38:08.394Z,7.63
2018-06-25T00:40:36.809Z,19.97
2018-06-25T00:43:05.189Z,8.70
2018-06-25T00:45:33.578Z,6.33
2018-06-25T00:48:01.942Z,6.70
2018-06-25T00:50:30.334Z,8.30
2018-06-25T00:52:58.697Z,7.00
2018-06-25T00:55:27.094Z,9.30
2018-06-25T00:57:55.466Z,12.80
2018-06-25T01:00:23.850Z,7.20
2018-06-25T01:02:52.241Z,8.80
2018-06-25T01:05:20.606Z,9.10
2018-06-25T01:07:49.018Z,9.10
2018-06-25T01:10:17.458Z,8.23
2018-06-25T01:12:45.840Z,8.50
2018-06-25T01:15:14.201Z,12.67
2018-06-25T01:17:42.590Z,6.93
2018-06-25T01:20:10.959Z,12.73
2018-06-25T01:22:39.353Z,11.67
2018-06-25T01:25:07.723Z,12.33
2018-06-25T01:27:36.126Z,14.77
2018-06-25T01:30:04.847Z,11.10
2018-06-25T01:32:33.250Z,11.07
2018-06-25T01:35:01.618Z,8.17
2018-06-25T01:37:30.016Z,10.40
2018-06-25T01:39:58.390Z,14.83
2018-06-25T01:42:26.806Z,17.23
2018-06-25T01:44:55.174Z,8.80
2018-06-25T01:47:23.583Z,12.37
2018-06-25T01:49:51.949Z,9.70
2018-06-25T01:52:20.338Z,13.50
2018-06-25T01:54:48.707Z,9.00
2018-06-25T01:57:17.105Z,10.53
2018-06-25T01:59:45.473Z,11.20
2018-06-25T02:02:13.885Z,16.43
2018-06-25T02:04:42.267Z,7.97
2018-06-25T02:07:10.669Z,9.30
2018-06-25T02:09:39.045Z,13.00
2018-06-25T02:12:07.452Z,11.50
2018-06-25T02:14:35.863Z,15.00
2018-06-25T02:17:04.254Z,10.53
2018-06-25T02:19:32.637Z,14.47
2018-06-25T02:22:01.049Z,9.63
2018-06-25T02:24:29.452Z,18.30
2018-06-25T02:26:57.834Z,12.97
2018-06-25T02:29:26.231Z,15.00
2018-06-25T02:31:54.606Z,10.90
2018-06-25T02:34:23.042Z,15.57
2018-06-25T02:36:51.406Z,15.23
2018-06-25T02:39:19.810Z,13.80
2018-06-25T02:41:48.192Z,11.13
2018-06-25T02:44:16.590Z,10.93
2018-06-25T02:46:44.969Z,12.27
2018-06-25T02:49:13.400Z,11.53
2018-06-25T02:51:41.771Z,14.30
2018-06-25T02:54:10.166Z,16.53
2018-06-25T02:56:38.547Z,11.57
2018-06-25T02:59:06.992Z,17.17
2018-06-25T03:01:35.346Z,12.07
2018-06-25T03:04:03.754Z,14.50
2018-06-25T03:06:32.143Z,15.47
2018-06-25T03:09:00.544Z,10.00
2018-06-25T03:11:28.945Z,21.60
2018-06-25T03:13:57.350Z,19.30
2018-06-25T03:16:25.727Z,14.13
2018-06-25T03:18:54.130Z,21.20
2018-06-25T03:21:22.511Z,16.40
2018-06-25T03:23:50.915Z,20.67
2018-06-25T03:26:19.282Z,19.73
2018-06-25T03:28:47.688Z,29.47
2018-06-25T03:31:16.083Z,18.87
2018-06-25T03:33:44.570Z,16.57
2018-06-25T03:36:12.975Z,22.93
2018-06-25T03:38:41.359Z,27.07
2018-06-25T03:41:09.797Z,36.50
2018-06-25T03:43:38.181Z,19.00
2018-06-25T03:46:06.626Z,25.30
2018-06-25T03:48:35.008Z,32.23
2018-06-25T03:51:03.465Z,29.13
2018-06-25T03:53:31.827Z,25.83
2018-06-25T03:56:00.227Z,22.87
2018-06-25T03:58:28.606Z,28.10
2018-06-25T04:00:57.211Z,31.13
2018-06-25T04:03:25.577Z,39.17
2018-06-25T04:05:53.978Z,28.93
2018-06-25T04:08:22.354Z,36.73
2018-06-25T04:10:50.782Z,37.73
2018-06-25T04:13:19.158Z,32.47
2018-06-25T04:15:47.582Z,26.90
2018-06-25T04:18:15.966Z,25.40
2018-06-25T04:20:44.370Z,29.83
2018-06-25T04:23:12.768Z,18.00
2018-06-25T04:25:41.171Z,24.63
2018-06-25T04:28:09.550Z,28.77
2018-06-25T04:30:38.232Z,34.67
2018-06-25T04:33:06.620Z,31.10
2018-06-25T04:35:35.010Z,21.40
2018-06-25T04:38:03.399Z,23.20
2018-06-25T04:40:31.805Z,25.83
2018-06-25T04:43:00.191Z,32.40
2018-06-25T04:45:28.586Z,28.73
2018-06-25T04:47:57.063Z,20.50
2018-06-25T04:50:25.446Z,24.97
2018-06-25T04:52:53.882Z,22.10
2018-06-25T04:55:22.264Z,26.63
2018-06-25T04:57:50.662Z,20.40
2018-06-25T05:00:19.039Z,26.17
2018-06-25T05:02:47.481Z,27.40
2018-06-25T05:05:15.862Z,19.67
2018-06-25T05:07:44.272Z,28.77
2018-06-25T05:10:12.671Z,16.30
2018-06-25T05:12:41.122Z,19.63
2018-06-25T05:15:09.499Z,35.73
2018-06-25T05:17:37.902Z,24.07
2018-06-25T05:20:06.310Z,21.27
2018-06-25T05:22:34.710Z,23.47
2018-06-25T05:25:03.086Z,21.93
2018-06-25T05:27:31.478Z,15.83
2018-06-25T05:29:59.855Z,18.53
2018-06-25T05:32:28.250Z,35.37
2018-06-25T05:34:56.631Z,18.03
2018-06-25T05:37:25.040Z,24.20
2018-06-25T05:39:53.433Z,19.03
2018-06-25T05:42:23.194Z,18.37
2018-06-25T05:44:52.873Z,24.27
2018-06-25T05:47:21.827Z,19.87
2018-06-25T05:49:50.462Z,26.73
2018-06-25T05:52:18.857Z,22.73
2018-06-25T05:54:47.235Z,20.93
2018-06-25T05:57:15.633Z,19.37
2018-06-25T05:59:44.178Z,19.20
2018-06-25T06:02:12.580Z,18.50
2018-06-25T06:04:41.146Z,20.20
2018-06-25T06:07:09.649Z,21.60
2018-06-25T06:09:38.030Z,20.90
2018-06-25T06:12:06.490Z,18.27
2018-06-25T06:14:34.862Z,31.80
2018-06-25T06:17:03.235Z,16.03
2018-06-25T06:19:31.632Z,14.87
2018-06-25T06:22:00.012Z,17.53
2018-06-25T06:24:28.956Z,18.10
2018-06-25T06:26:57.327Z,23.20
2018-06-25T06:29:25.880Z,22.33
2018-06-25T06:31:54.255Z,18.80
2018-06-25T06:34:22.653Z,14.53
2018-06-25T06:36:51.022Z,22.07
2018-06-25T06:39:19.435Z,18.90
2018-06-25T06:41:47.839Z,22.50
2018-06-25T06:44:16.272Z,17.00
2018-06-25T06:46:44.701Z,26.10
2018-06-25T06:49:13.102Z,12.53
2018-06-25T06:51:41.478Z,16.40
2018-06-25T06:54:09.878Z,22.10
2018-06-25T06:56:38.253Z,18.60
2018-06-25T06:59:06.654Z,17.40
2018-06-25T07:01:35.043Z,28.60
2018-06-25T07:04:03.566Z,15.60
2018-06-25T07:06:31.955Z,18.37
2018-06-25T07:09:00.346Z,12.87
2018-06-25T07:11:28.738Z,20.23
2018-06-25T07:13:57.151Z,12.50
2018-06-25T07:16:25.533Z,18.10
2018-06-25T07:18:53.986Z,14.70
2018-06-25T07:21:22.382Z,10.50
2018-06-25T07:23:50.778Z,14.40
2018-06-25T07:26:24.830Z,13.03
2018-06-25T07:28:54.017Z,7.93
2018-06-25T07:31:22.501Z,6.70
2018-06-25T07:33:50.898Z,6.77
2018-06-25T07:36:19.367Z,7.70
2018-06-25T07:38:47.780Z,7.03
2018-06-25T07:41:17.561Z,9.77
2018-06-25T07:43:46.146Z,10.97
2018-06-25T07:46:14.958Z,10.37
2018-06-25T07:48:44.123Z,8.10
2018-06-25T07:51:12.711Z,10.90
2018-06-25T07:53:41.177Z,11.60
2018-06-25T07:56:09.498Z,11.43
2018-06-25T07:58:37.871Z,11.50
2018-06-25T08:01:06.514Z,8.60
2018-06-25T08:03:34.898Z,9.77
2018-06-25T08:06:03.288Z,8.17
2018-06-25T08:08:31.671Z,9.40
2018-06-25T08:11:00.091Z,9.40
2018-06-25T08:13:28.467Z,8.97
2018-06-25T08:15:56.854Z,29.37
2018-06-25T08:18:25.226Z,9.03
2018-06-25T08:20:53.622Z,11.33
2018-06-25T08:23:21.995Z,10.93
2018-06-25T08:25:50.423Z,10.67
2018-06-25T08:28:18.813Z,11.87
2018-06-25T08:30:47.212Z,9.97
2018-06-25T08:33:15.590Z,9.23
2018-06-25T08:35:43.986Z,12.40
2018-06-25T08:38:12.363Z,10.87
2018-06-25T08:40:40.867Z,12.90
2018-06-25T08:43:09.242Z,9.17
2018-06-25T08:45:37.635Z,8.83
2018-06-25T08:48:06.602Z,14.23
2018-06-25T08:50:34.998Z,12.73
2018-06-25T08:53:03.415Z,8.60
2018-06-25T08:55:31.808Z,7.37
2018-06-25T08:58:00.407Z,6.80
2018-06-25T09:00:28.820Z,38.97
2018-06-25T09:02:57.195Z,38.87
2018-06-25T09:05:26.097Z,7.80
2018-06-25T09:07:54.487Z,7.20
2018-06-25T09:10:22.866Z,7.17
2018-06-25T09:12:51.276Z,8.30
2018-06-25T09:15:19.716Z,7.30
2018-06-25T09:17:48.080Z,14.40
2018-06-25T09:20:16.463Z,13.07
2018-06-25T09:22:44.863Z,9.43
2018-06-25T09:25:13.229Z,11.60
2018-06-25T09:27:48.285Z,9.80
2018-06-25T09:30:17.310Z,9.83
2018-06-25T09:32:45.706Z,7.07
2018-06-25T09:35:14.084Z,22.80
2018-06-25T09:37:42.486Z,7.73
2018-06-25T09:40:10.863Z,9.60
2018-06-25T09:42:39.276Z,8.00
2018-06-25T09:45:08.918Z,6.20
2018-06-25T09:47:37.319Z,10.77
2018-06-25T09:50:05.702Z,8.17
2018-06-25T09:52:34.090Z,9.37
2018-06-25T09:55:02.534Z,10.90
2018-06-25T09:57:30.890Z,14.13
2018-06-25T09:59:59.262Z,9.00
2018-06-25T10:02:27.666Z,10.83
2018-06-25T10:04:56.265Z,12.53
2018-06-25T10:07:24.870Z,20.97
2018-06-25T10:09:53.238Z,8.30
2018-06-25T10:12:21.694Z,11.20
2018-06-25T10:14:50.057Z,6.53
2018-06-25T10:17:18.438Z,7.93
2018-06-25T10:19:46.811Z,9.90
2018-06-25T10:22:15.203Z,9.73
2018-06-25T10:24:43.574Z,10.00
2018-06-25T10:27:11.976Z,8.57
2018-06-25T10:29:40.340Z,8.33
2018-06-25T10:32:08.717Z,9.67
2018-06-25T10:34:37.109Z,7.30
2018-06-25T10:37:05.505Z,6.90
2018-06-25T10:39:33.908Z,12.70
2018-06-25T10:42:02.351Z,13.80
2018-06-25T10:44:30.702Z,7.90
2018-06-25T10:46:59.066Z,7.33
2018-06-25T10:49:27.467Z,8.63
2018-06-25T10:51:55.848Z,18.83
2018-06-25T10:54:24.251Z,11.07
2018-06-25T10:56:52.636Z,13.70
2018-06-25T10:59:21.079Z,10.03
2018-06-25T11:01:49.418Z,12.77
2018-06-25T11:04:17.810Z,10.97
2018-06-25T11:06:46.186Z,8.13
2018-06-25T11:09:14.579Z,9.60
2018-06-25T11:11:42.970Z,13.80
2018-06-25T11:14:11.377Z,15.23
2018-06-25T11:16:39.752Z,10.40
2018-06-25T11:19:08.152Z,10.90
2018-06-25T11:21:36.527Z,10.57
2018-06-25T11:24:04.958Z,15.77
2018-06-25T11:26:33.333Z,12.00
2018-06-25T11:29:01.765Z,16.13
2018-06-25T11:31:30.140Z,8.13
2018-06-25T11:33:58.543Z,10.53
2018-06-25T11:36:26.917Z,11.97
2018-06-25T11:38:55.308Z,13.77
2018-06-25T11:41:23.685Z,13.73
2018-06-25T11:43:52.091Z,12.23
2018-06-25T11:46:20.468Z,9.60
2018-06-25T11:48:48.858Z,13.80
2018-06-25T11:51:17.254Z,11.60
2018-06-25T11:53:45.632Z,7.53
2018-06-25T11:56:14.032Z,9.30
2018-06-25T11:58:42.405Z,8.33
2018-06-25T12:01:10.805Z,21.37
2018-06-25T12:03:39.187Z,6.60
2018-06-25T12:06:07.595Z,10.47
2018-06-25T12:08:35.983Z,11.53
2018-06-25T12:11:04.554Z,6.80
2018-06-25T12:13:32.925Z,15.93
2018-06-25T12:16:01.323Z,15.53
2018-06-25T12:18:29.689Z,12.40
2018-06-25T12:20:58.094Z,16.00
2018-06-25T12:23:26.478Z,16.27
2018-06-25T12:25:54.884Z,14.53
2018-06-25T12:28:23.253Z,9.00
2018-06-25T12:30:51.642Z,9.80
2018-06-25T12:33:20.028Z,11.70
2018-06-25T12:35:48.420Z,8.07
2018-06-25T12:38:16.798Z,6.60
2018-06-25T12:40:45.191Z,9.30
2018-06-25T12:43:13.597Z,6.23
2018-06-25T12:45:41.970Z,7.80
2018-06-25T12:48:10.338Z,10.77
2018-06-25T12:50:38.834Z,8.07
2018-06-25T12:53:07.197Z,14.73
2018-06-25T12:55:35.590Z,9.10
2018-06-25T12:58:03.959Z,5.47
2018-06-25T13:00:32.418Z,9.97
2018-06-25T13:03:00.803Z,9.83
2018-06-25T13:05:29.207Z,9.17
2018-06-25T13:07:57.577Z,12.50
2018-06-25T13:10:25.995Z,6.80
2018-06-25T13:12:54.398Z,7.63
2018-06-25T13:15:22.790Z,11.33
2018-06-25T13:17:51.181Z,14.77
2018-06-25T13:20:19.563Z,18.60
2018-06-25T13:22:47.963Z,14.13
2018-06-25T13:25:16.347Z,13.77
2018-06-25T13:27:44.734Z,10.60
2018-06-25T13:30:13.142Z,9.17
2018-06-25T13:32:41.555Z,19.57
2018-06-25T13:35:09.931Z,12.00
2018-06-25T13:37:38.331Z,14.83
2018-06-25T13:40:06.731Z,11.13
2018-06-25T13:42:35.169Z,11.73
2018-06-25T13:45:03.560Z,9.97
2018-06-25T13:47:32.071Z,7.67
2018-06-25T13:50:00.445Z,13.90
2018-06-25T13:52:28.843Z,12.13
2018-06-25T13:54:57.215Z,9.37
2018-06-25T13:57:25.607Z,7.53
2018-06-25T13:59:54.002Z,13.43
2018-06-25T14:02:22.403Z,9.47
2018-06-25T14:04:50.778Z,14.03
2018-06-25T14:07:19.184Z,12.77
2018-06-25T14:09:47.581Z,6.20
2018-06-25T14:12:16.009Z,10.07
2018-06-25T14:14:44.396Z,10.63
2018-06-25T14:17:12.797Z,7.60
2018-06-25T14:19:41.482Z,11.20
2018-06-25T14:22:09.892Z,11.50
2018-06-25T14:25:11.355Z,14.07
2018-06-25T14:27:45.109Z,12.07
2018-06-25T14:30:18.703Z,9.80
2018-06-25T14:32:50.718Z,9.43
2018-06-25T14:35:19.092Z,7.40
2018-06-25T14:37:47.985Z,15.00
2018-06-25T14:40:16.407Z,23.53
2018-06-25T14:42:44.798Z,18.40
2018-06-25T14:45:13.253Z,14.93
2018-06-25T14:47:41.622Z,8.30
2018-06-25T14:50:09.993Z,8.97
2018-06-25T14:52:38.384Z,9.73
2018-06-25T14:55:06.862Z,10.53
2018-06-25T14:57:35.286Z,10.17
2018-06-25T15:00:03.714Z,10.73
2018-06-25T15:02:32.148Z,6.13
2018-06-25T15:05:00.877Z,11.70
2018-06-25T15:07:29.249Z,2.93
2018-06-25T15:09:57.649Z,5.83
2018-06-25T15:12:26.052Z,8.50
2018-06-25T15:14:54.523Z,5.23
2018-06-25T15:17:22.941Z,6.83
2018-06-25T15:19:51.330Z,9.03
2018-06-25T15:22:19.705Z,5.27
2018-06-25T15:24:48.106Z,10.50
2018-06-25T15:27:16.475Z,8.23
2018-06-25T15:29:44.874Z,10.80
2018-06-25T15:32:13.234Z,5.00
2018-06-25T15:34:41.617Z,8.33
2018-06-25T15:37:09.999Z,10.00
2018-06-25T15:39:38.390Z,10.80
2018-06-25T15:42:07.087Z,11.77
2018-06-25T15:44:35.512Z,11.20
2018-06-25T15:47:03.895Z,13.53
2018-06-25T15:49:32.286Z,8.53
2018-06-25T15:52:00.661Z,6.27
2018-06-25T15:54:29.045Z,8.17
2018-06-25T15:56:57.410Z,5.43
2018-06-25T15:59:25.823Z,11.67
2018-06-25T16:01:54.190Z,11.57
2018-06-25T16:04:22.595Z,7.33
2018-06-25T16:06:51.053Z,6.63
2018-06-25T16:09:19.403Z,10.63
2018-06-25T16:11:47.830Z,10.13
2018-06-25T16:14:16.240Z,6.53
2018-06-25T16:16:44.639Z,9.13
2018-06-25T16:19:13.035Z,10.77
2018-06-25T16:21:41.558Z,7.53
2018-06-25T16:24:09.990Z,13.87
2018-06-25T16:26:38.399Z,11.40
2018-06-25T16:29:06.780Z,8.03
2018-06-25T16:31:35.182Z,11.93
2018-06-25T16:34:03.640Z,23.23
2018-06-25T16:36:32.059Z,14.77
2018-06-25T16:39:00.465Z,9.40
2018-06-25T16:41:28.883Z,14.97
2018-06-25T16:43:57.262Z,13.07
2018-06-25T16:46:25.668Z,20.13
2018-06-25T16:48:54.043Z,18.47
2018-06-25T16:51:22.442Z,16.03
2018-06-25T16:53:50.826Z,10.63
2018-06-25T16:56:19.294Z,8.70
2018-06-25T16:58:47.687Z,15.43
2018-06-25T17:01:16.090Z,10.00
2018-06-25T17:03:44.490Z,11.37
2018-06-25T17:06:12.898Z,17.50
2018-06-25T17:08:41.282Z,25.70
2018-06-25T17:11:09.712Z,10.87
2018-06-25T17:13:38.086Z,8.73
2018-06-25T17:16:06.625Z,12.43
2018-06-25T17:18:35.798Z,12.33
2018-06-25T17:21:04.297Z,8.83
2018-06-25T17:23:32.714Z,11.00
2018-06-25T17:26:01.471Z,8.10
2018-06-25T17:28:29.953Z,10.20
2018-06-25T17:30:58.757Z,11.43
2018-06-25T17:33:27.135Z,15.50
2018-06-25T17:35:55.679Z,12.73
2018-06-25T17:38:24.077Z,7.60
2018-06-25T17:40:52.456Z,12.80
2018-06-25T17:43:20.850Z,14.87
2018-06-25T17:45:49.341Z,7.43
2018-06-25T17:48:17.766Z,15.33
2018-06-25T17:50:46.143Z,14.90
2018-06-25T17:53:14.534Z,12.40
2018-06-25T17:55:42.910Z,12.27
2018-06-25T17:58:11.319Z,11.20
2018-06-25T18:00:39.690Z,14.00
2018-06-25T18:03:08.089Z,10.60
2018-06-25T18:05:36.465Z,14.10
2018-06-25T18:08:04.888Z,35.53
2018-06-25T18:10:33.272Z,24.30
2018-06-25T18:13:01.694Z,15.83
2018-06-25T18:15:30.068Z,18.73
2018-06-25T18:17:58.463Z,18.13
2018-06-25T18:20:26.834Z,17.10
2018-06-25T18:22:55.275Z,13.57
2018-06-25T18:25:23.656Z,18.90
2018-06-25T18:27:52.056Z,19.33
2018-06-25T18:30:20.434Z,11.37
2018-06-25T18:32:48.939Z,21.83
2018-06-25T18:35:17.466Z,16.97
2018-06-25T18:37:45.912Z,11.53
2018-06-25T18:40:14.322Z,11.90
2018-06-25T18:42:42.721Z,24.87
2018-06-25T18:45:11.099Z,26.83
2018-06-25T18:47:39.494Z,22.03
2018-06-25T18:50:07.866Z,14.40
2018-06-25T18:52:36.242Z,21.73
2018-06-25T18:55:04.797Z,21.10
2018-06-25T18:57:33.169Z,13.83
2018-06-25T19:00:01.571Z,26.40
2018-06-25T19:02:29.947Z,18.93
2018-06-25T19:04:58.346Z,14.43
2018-06-25T19:07:26.721Z,27.23
2018-06-25T19:09:55.118Z,17.20
2018-06-25T19:12:23.513Z,18.83
2018-06-25T19:14:51.911Z,13.53
2018-06-25T19:17:20.282Z,32.67
2018-06-25T19:19:48.827Z,17.93
2018-06-25T19:22:17.197Z,20.60
2018-06-25T19:24:45.599Z,15.60
2018-06-25T19:27:13.975Z,30.47
2018-06-25T19:29:42.371Z,18.83
2018-06-25T19:32:10.785Z,8.50
2018-06-25T19:34:39.187Z,16.73
2018-06-25T19:37:07.562Z,16.13
2018-06-25T19:39:35.963Z,24.27
2018-06-25T19:42:04.334Z,16.23
2018-06-25T19:44:32.731Z,26.07
2018-06-25T19:47:01.120Z,19.50
2018-06-25T19:49:29.518Z,22.43
2018-06-25T19:51:57.954Z,22.83
2018-06-25T19:54:26.413Z,23.03
2018-06-25T19:56:54.781Z,15.10
2018-06-25T19:59:23.171Z,13.90
2018-06-25T20:01:51.608Z,13.30
2018-06-25T20:04:20.026Z,15.63
2018-06-25T20:06:48.394Z,14.90
2018-06-25T20:09:16.807Z,14.87
2018-06-25T20:11:45.221Z,19.90
2018-06-25T20:14:13.602Z,20.63
2018-06-25T20:16:42.097Z,18.90
2018-06-25T20:19:10.455Z,13.63
2018-06-25T20:21:38.854Z,26.57
2018-06-25T20:24:07.250Z,22.63
2018-06-25T20:26:35.683Z,24.43
2018-06-25T20:29:04.243Z,36.73
2018-06-25T20:31:32.813Z,19.87
2018-06-25T20:34:01.197Z,25.93
2018-06-25T20:36:29.595Z,37.50
2018-06-25T20:38:57.977Z,32.27
2018-06-25T20:41:26.369Z,28.87
2018-06-25T20:43:54.883Z,39.83
2018-06-25T20:46:23.287Z,24.33
2018-06-25T20:48:51.665Z,29.37
2018-06-25T20:51:20.110Z,26.30
2018-06-25T20:53:48.486Z,27.00
2018-06-25T20:56:16.910Z,24.30
2018-06-25T20:58:45.277Z,21.53
2018-06-25T21:01:13.683Z,20.40
2018-06-25T21:03:42.058Z,19.20
2018-06-25T21:06:10.482Z,19.93
2018-06-25T21:08:38.867Z,34.07
2018-06-25T21:11:07.257Z,22.50
2018-06-25T21:13:35.662Z,31.33
2018-06-25T21:16:04.077Z,28.73
2018-06-25T21:18:32.458Z,28.30
2018-06-25T21:21:00.859Z,31.20
2018-06-25T21:23:29.239Z,28.23
2018-06-25T21:25:57.629Z,17.00
2018-06-25T21:28:26.009Z,23.00
2018-06-25T21:30:54.425Z,20.03
2018-06-25T21:33:22.807Z,24.10
2018-06-25T21:35:51.260Z,22.53
2018-06-25T21:38:19.610Z,26.63
2018-06-25T21:40:47.982Z,37.10
2018-06-25T21:43:16.403Z,20.00
2018-06-25T21:45:44.786Z,38.60
2018-06-25T21:48:13.185Z,25.83
2018-06-25T21:50:41.557Z,27.73
2018-06-25T21:53:09.959Z,27.83
2018-06-25T21:55:38.453Z,23.50
2018-06-25T21:58:06.866Z,25.77
2018-06-25T22:00:46.239Z,20.70
2018-06-25T22:03:16.842Z,32.20
2018-06-25T22:05:45.257Z,30.97
2018-06-25T22:08:13.660Z,23.60
2018-06-25T22:10:42.163Z,24.20
2018-06-25T22:13:10.767Z,34.03
2018-06-25T22:15:39.141Z,25.23
2018-06-25T22:18:08.137Z,30.20
2018-06-25T22:20:36.797Z,28.93
2018-06-25T22:23:05.343Z,29.10
2018-06-25T22:25:33.718Z,35.43
2018-06-25T22:28:02.114Z,27.47
2018-06-25T22:30:30.495Z,23.97
2018-06-25T22:32:58.926Z,27.13
2018-06-25T22:35:27.311Z,32.97
2018-06-25T22:37:55.688Z,31.60
2018-06-25T22:40:24.086Z,26.40
2018-06-25T22:42:52.458Z,29.20
2018-06-25T22:45:20.863Z,27.30
2018-06-25T22:47:49.238Z,27.40
2018-06-25T22:50:17.646Z,34.80
2018-06-25T22:52:46.014Z,24.13
2018-06-25T22:55:14.421Z,40.47
2018-06-25T22:57:42.808Z,42.97
2018-06-25T23:00:11.213Z,47.13
2018-06-25T23:02:39.595Z,38.83
2018-06-25T23:05:08.003Z,43.23
2018-06-25T23:07:36.393Z,38.00
2018-06-25T23:10:04.942Z,48.07
2018-06-25T23:12:33.338Z,44.13
2018-06-25T23:15:01.749Z,48.47
2018-06-25T23:17:30.134Z,38.87
2018-06-25T23:19:58.541Z,36.87
2018-06-25T23:22:26.988Z,26.17
2018-06-25T23:24:55.385Z,24.83
2018-06-25T23:27:23.766Z,45.10
2018-06-25T23:29:52.170Z,33.93
2018-06-25T23:32:20.555Z,27.13
2018-06-25T23:34:48.954Z,46.60
2018-06-25T23:37:17.342Z,32.70
2018-06-25T23:39:45.743Z,32.97
2018-06-25T23:42:14.126Z,35.23
2018-06-25T23:44:42.532Z,41.97
2018-06-25T23:47:10.917Z,35.77
2018-06-25T23:49:39.368Z,32.10
2018-06-25T23:52:07.741Z,26.10
2018-06-25T23:54:36.115Z,26.73
2018-06-25T23:57:04.517Z,27.60
2018-06-25T23:59:32.890Z,24.97
